createdAt,value
2022-11-04T00:03:23.675Z,65.55
2022-11-04T00:08:28.869Z,59.10
2022-11-04T00:13:34.962Z,68.43
2022-11-04T00:18:39.827Z,58.63
2022-11-04T00:24:07.491Z,60.67
2022-11-04T00:29:12.795Z,72.65
2022-11-04T00:34:17.629Z,74.37
2022-11-04T00:39:22.385Z,70.38
2022-11-04T00:44:28.155Z,76.10
2022-11-04T00:49:33.627Z,55.78
2022-11-04T00:54:38.782Z,67.47
2022-11-04T00:59:44.577Z,64.67
2022-11-04T01:04:52.667Z,69.45
2022-11-04T01:09:57.906Z,48.00
2022-11-04T01:15:02.919Z,65.80
2022-11-04T01:20:07.951Z,56.63
2022-11-04T01:25:13.182Z,46.25
2022-11-04T01:30:18.611Z,67.65
2022-11-04T01:35:23.553Z,50.20
2022-11-04T01:40:29.093Z,57.70
2022-11-04T01:45:34.602Z,55.40
2022-11-04T01:50:39.921Z,53.20
2022-11-04T01:55:50.311Z,69.90
2022-11-04T02:00:55.296Z,57.13
2022-11-04T02:06:01.139Z,66.35
2022-11-04T02:11:06.543Z,61.65
2022-11-04T02:16:17.977Z,54.43
2022-11-04T02:21:22.977Z,51.65
2022-11-04T02:26:56.445Z,41.08
2022-11-04T02:32:14.709Z,47.90
2022-11-04T02:37:29.344Z,57.58
2022-11-04T02:42:37.845Z,48.95
2022-11-04T02:47:45.226Z,46.10
2022-11-04T02:52:51.487Z,72.40
2022-11-04T02:57:59.362Z,55.97
2022-11-04T03:03:08.766Z,52.88
2022-11-04T03:08:20.043Z,38.97
2022-11-04T03:13:31.565Z,51.13
2022-11-04T03:18:43.547Z,53.47
2022-11-04T03:23:48.420Z,37.17
2022-11-04T03:29:02.844Z,51.60
2022-11-04T03:34:08.823Z,49.28
2022-11-04T03:39:13.993Z,54.53
2022-11-04T03:44:18.951Z,44.53
2022-11-04T03:49:24.920Z,50.33
2022-11-04T03:54:34.022Z,44.72
2022-11-04T03:59:55.273Z,58.13
2022-11-04T04:05:05.004Z,29.25
2022-11-04T04:10:32.814Z,40.97
2022-11-04T04:15:45.298Z,45.22
2022-11-04T04:20:51.897Z,46.30
2022-11-04T04:26:16.641Z,41.28
2022-11-04T04:31:41.329Z,49.28
2022-11-04T04:37:06.276Z,47.17
2022-11-04T04:42:31.075Z,44.47
2022-11-04T04:47:39.593Z,46.60
2022-11-04T04:52:48.242Z,26.52
2022-11-04T04:57:53.218Z,38.78
2022-11-04T05:02:58.390Z,37.57
2022-11-04T05:08:07.860Z,38.90
2022-11-04T05:13:33.507Z,33.15
2022-11-04T05:18:38.861Z,31.58
2022-11-04T05:23:43.928Z,33.43
2022-11-04T05:28:49.251Z,25.63
2022-11-04T05:33:55.632Z,35.80
2022-11-04T05:39:00.389Z,26.95
2022-11-04T05:44:07.835Z,27.70
2022-11-04T05:49:12.671Z,26.63
2022-11-04T05:54:17.912Z,27.65
2022-11-04T05:59:24.947Z,32.88
2022-11-04T06:04:32.679Z,28.75
2022-11-04T06:09:40.424Z,31.08
2022-11-04T06:14:46.370Z,24.80
2022-11-04T06:19:52.278Z,21.05
2022-11-04T06:24:57.708Z,35.45
2022-11-04T06:30:03.625Z,25.33
2022-11-04T06:35:10.115Z,25.65
2022-11-04T06:40:15.007Z,23.33
2022-11-04T06:45:20.438Z,25.03
2022-11-04T06:50:25.646Z,33.60
2022-11-04T06:55:30.800Z,28.98
2022-11-04T07:00:36.213Z,31.15
2022-11-04T07:05:44.592Z,33.65
2022-11-04T07:15:57.404Z,22.35
2022-11-04T07:21:07.180Z,22.42
2022-11-04T07:26:15.882Z,22.52
2022-11-04T07:31:21.317Z,23.70
2022-11-04T07:36:26.716Z,24.83
2022-11-04T07:46:40.123Z,25.00
2022-11-04T07:51:45.634Z,25.85
2022-11-04T07:56:50.644Z,21.85
2022-11-04T08:01:56.182Z,24.40
2022-11-04T08:07:03.338Z,23.50
2022-11-04T08:12:11.528Z,20.23
2022-11-04T08:17:16.428Z,22.52
2022-11-04T08:22:21.591Z,23.33
2022-11-04T08:27:26.662Z,23.90
2022-11-04T08:32:31.976Z,25.37
2022-11-04T08:37:37.144Z,22.02
2022-11-04T08:42:42.383Z,20.13
2022-11-04T08:47:47.277Z,25.85
2022-11-04T08:52:51.982Z,22.73
2022-11-04T08:57:57.174Z,25.13
2022-11-04T09:03:02.781Z,24.10
2022-11-04T09:08:08.687Z,21.20
2022-11-04T09:13:14.460Z,21.88
2022-11-04T09:23:24.251Z,28.00
2022-11-04T09:28:29.759Z,30.03
2022-11-04T09:33:34.855Z,29.95
2022-11-04T09:38:40.461Z,22.02
2022-11-04T09:43:45.891Z,26.10
2022-11-04T09:48:52.834Z,33.83
2022-11-04T09:54:11.447Z,28.33
2022-11-04T09:59:19.901Z,24.08
2022-11-04T10:04:37.525Z,24.48
2022-11-04T10:09:47.254Z,32.80
2022-11-04T10:15:15.391Z,31.45
2022-11-04T10:20:23.979Z,32.55
2022-11-04T10:25:36.785Z,25.85
2022-11-04T10:30:43.518Z,29.17
2022-11-04T10:35:54.527Z,29.42
2022-11-04T10:41:03.104Z,24.15
2022-11-04T10:46:24.662Z,26.00
2022-11-04T10:51:29.815Z,27.85
2022-11-04T10:56:38.553Z,26.90
2022-11-04T11:01:51.886Z,32.08
2022-11-04T11:06:58.659Z,29.50
2022-11-04T11:12:36.274Z,30.08
2022-11-04T11:17:35.753Z,32.47
2022-11-04T11:22:42.772Z,33.60
2022-11-04T11:27:50.793Z,34.95
2022-11-04T11:33:29.063Z,39.53
2022-11-04T11:38:36.024Z,34.72
2022-11-04T11:43:43.815Z,50.50
2022-11-04T11:48:54.582Z,48.90
2022-11-04T11:54:05.571Z,41.50
2022-11-04T12:10:50.323Z,81.93
2022-11-04T12:16:11.787Z,72.20
2022-11-04T12:21:20.335Z,56.60
2022-11-04T12:26:37.398Z,56.60
2022-11-04T12:31:51.449Z,68.50
2022-11-04T12:36:57.051Z,51.65
2022-11-04T12:42:22.927Z,55.08
2022-11-04T12:47:45.384Z,62.67
2022-11-04T12:53:00.021Z,61.25
2022-11-04T12:58:11.056Z,67.38
2022-11-04T13:03:34.925Z,65.80
2022-11-04T13:08:40.125Z,91.72
2022-11-04T13:13:45.452Z,100.97
2022-11-04T13:18:51.696Z,93.03
2022-11-04T13:24:06.816Z,86.03
2022-11-04T13:29:22.510Z,96.03
2022-11-04T13:34:45.778Z,113.10
2022-11-04T13:39:55.825Z,113.97
2022-11-04T13:45:06.916Z,131.68
2022-11-04T13:50:32.075Z,96.47
2022-11-04T13:55:37.917Z,129.95
2022-11-04T14:05:48.608Z,106.95
2022-11-04T14:10:53.840Z,99.85
2022-11-04T14:16:18.855Z,99.47
2022-11-04T14:21:25.436Z,89.05
2022-11-04T14:26:52.105Z,94.10
2022-11-04T14:32:01.676Z,78.90
2022-11-04T14:37:10.947Z,79.30
2022-11-04T14:42:17.831Z,81.78
2022-11-04T14:47:23.073Z,74.47
2022-11-04T14:52:42.763Z,69.27
2022-11-04T14:57:49.731Z,68.57
2022-11-04T15:03:04.674Z,70.57
2022-11-04T15:08:28.352Z,67.18
2022-11-04T15:13:47.330Z,47.97
2022-11-04T15:18:53.747Z,65.25
2022-11-04T15:23:59.218Z,62.13
2022-11-04T15:34:14.631Z,65.88
2022-11-04T15:39:19.921Z,67.55
2022-11-04T15:44:29.994Z,66.17
2022-11-04T15:49:36.604Z,63.67
2022-11-04T15:54:45.743Z,68.30
2022-11-04T15:59:57.597Z,70.03
2022-11-04T16:05:05.997Z,73.93
2022-11-04T16:10:31.504Z,75.37
2022-11-04T16:15:52.752Z,83.17
2022-11-04T16:20:58.428Z,82.50
2022-11-04T16:31:28.364Z,76.40
2022-11-04T16:36:35.932Z,77.22
2022-11-04T16:41:48.812Z,78.10
2022-11-04T16:46:54.418Z,79.28
2022-11-04T16:52:04.364Z,55.92
2022-11-04T16:57:12.923Z,69.60
2022-11-04T17:02:29.394Z,72.05
2022-11-04T17:07:51.541Z,78.68
2022-11-04T17:13:07.301Z,66.90
2022-11-04T17:18:19.031Z,64.40
2022-11-04T17:23:24.349Z,70.50
2022-11-04T17:28:29.260Z,61.90
2022-11-04T17:33:37.076Z,65.27
2022-11-04T17:38:42.454Z,63.42
2022-11-04T17:44:03.071Z,62.57
2022-11-04T17:49:11.552Z,65.22
2022-11-04T17:54:16.821Z,66.10
2022-11-04T17:59:22.019Z,63.03
2022-11-04T18:04:26.973Z,73.93
2022-11-04T18:09:32.548Z,62.83
2022-11-04T18:14:37.558Z,66.82
2022-11-04T18:19:42.463Z,66.63
2022-11-04T18:24:48.954Z,62.20
2022-11-04T18:29:54.337Z,64.10
2022-11-04T18:34:59.452Z,57.65
2022-11-04T18:40:04.365Z,63.47
2022-11-04T18:45:09.882Z,62.45
2022-11-04T18:50:15.088Z,62.47
2022-11-04T18:55:19.985Z,61.67
2022-11-04T19:00:25.529Z,58.45
2022-11-04T19:05:31.194Z,60.95
2022-11-04T19:10:57.885Z,52.80
2022-11-04T19:16:08.871Z,59.13
2022-11-04T19:21:14.695Z,55.45
2022-11-04T19:31:26.864Z,56.17
2022-11-04T19:36:33.271Z,58.03
2022-11-04T19:41:57.045Z,58.60
2022-11-04T19:47:01.897Z,51.67
2022-11-04T19:52:07.214Z,52.72
2022-11-04T19:57:12.036Z,55.83
2022-11-04T20:02:17.702Z,46.55
2022-11-04T20:07:23.103Z,58.15
2022-11-04T20:12:46.792Z,50.33
2022-11-04T20:17:51.735Z,54.03
2022-11-04T20:22:56.933Z,54.60
2022-11-04T20:28:03.442Z,57.07
2022-11-04T20:33:08.436Z,54.22
2022-11-04T20:38:13.433Z,54.67
2022-11-04T20:43:18.610Z,51.00
2022-11-04T20:48:23.743Z,46.93
2022-11-04T20:53:28.603Z,49.50
2022-11-04T20:58:33.492Z,55.22
2022-11-04T21:03:38.609Z,48.22
2022-11-04T21:08:43.468Z,53.33
2022-11-04T21:13:49.464Z,51.47
2022-11-04T21:24:02.247Z,57.88
2022-11-04T21:29:08.413Z,56.30
2022-11-04T21:39:17.970Z,50.67
2022-11-04T21:44:25.059Z,60.27
2022-11-04T21:49:29.871Z,51.55
2022-11-04T21:54:34.727Z,64.95
2022-11-04T21:59:39.922Z,60.10
2022-11-04T22:04:45.315Z,95.77
2022-11-04T22:09:50.207Z,119.38
2022-11-04T22:14:55.312Z,159.52
2022-11-04T22:20:00.112Z,147.27
2022-11-04T22:25:05.320Z,146.32
2022-11-04T22:30:11.002Z,100.33
2022-11-04T22:40:22.390Z,153.70
2022-11-04T22:45:27.571Z,138.15
2022-11-04T22:50:32.815Z,142.70
2022-11-04T22:55:39.498Z,162.03
2022-11-04T23:00:44.460Z,161.20
2022-11-04T23:05:49.695Z,161.07
2022-11-04T23:11:17.537Z,128.77
2022-11-04T23:16:42.930Z,153.93
2022-11-04T23:22:06.640Z,146.40
2022-11-04T23:27:11.856Z,142.15
2022-11-04T23:32:21.963Z,138.53
2022-11-04T23:37:31.175Z,137.55
2022-11-04T23:42:36.217Z,136.35
2022-11-04T23:48:04.904Z,128.03
2022-11-04T23:53:32.149Z,138.23
2022-11-04T23:58:56.268Z,130.40
